sensor_id;sensor_type;location;lat;lon;timestamp;P1;durP1;ratioP1;P2;durP2;ratioP2
64959;SDS011;51487;52.266;10.542;2023-04-12T00:00:31;5.28;;;2.65;;
64959;SDS011;51487;52.266;10.542;2023-04-12T00:02:56;7.10;;;2.47;;
64959;SDS011;51487;52.266;10.542;2023-04-12T00:05:23;4.40;;;2.33;;
64959;SDS011;51487;52.266;10.542;2023-04-12T00:07:51;5.70;;;2.42;;
64959;SDS011;51487;52.266;10.542;2023-04-12T00:10:18;6.03;;;2.45;;
64959;SDS011;51487;52.266;10.542;2023-04-12T00:12:44;3.55;;;1.95;;
64959;SDS011;51487;52.266;10.542;2023-04-12T00:15:10;5.70;;;2.55;;
64959;SDS011;51487;52.266;10.542;2023-04-12T00:17:36;3.58;;;2.22;;
64959;SDS011;51487;52.266;10.542;2023-04-12T00:20:02;6.53;;;2.47;;
64959;SDS011;51487;52.266;10.542;2023-04-12T00:22:35;5.78;;;2.20;;
64959;SDS011;51487;52.266;10.542;2023-04-12T00:25:01;5.22;;;2.17;;
64959;SDS011;51487;52.266;10.542;2023-04-12T00:27:26;4.35;;;1.95;;
64959;SDS011;51487;52.266;10.542;2023-04-12T00:29:51;4.95;;;2.25;;
64959;SDS011;51487;52.266;10.542;2023-04-12T00:32:17;4.63;;;1.98;;
64959;SDS011;51487;52.266;10.542;2023-04-12T00:34:42;5.00;;;2.40;;
64959;SDS011;51487;52.266;10.542;2023-04-12T00:37:08;3.97;;;1.90;;
64959;SDS011;51487;52.266;10.542;2023-04-12T00:39:33;5.75;;;2.20;;
64959;SDS011;51487;52.266;10.542;2023-04-12T00:42:02;6.75;;;2.50;;
64959;SDS011;51487;52.266;10.542;2023-04-12T00:44:28;5.32;;;2.15;;
64959;SDS011;51487;52.266;10.542;2023-04-12T00:46:53;2.65;;;2.00;;
64959;SDS011;51487;52.266;10.542;2023-04-12T00:49:18;4.22;;;1.77;;
64959;SDS011;51487;52.266;10.542;2023-04-12T00:51:44;4.57;;;2.00;;
64959;SDS011;51487;52.266;10.542;2023-04-12T00:54:09;4.18;;;2.17;;
64959;SDS011;51487;52.266;10.542;2023-04-12T00:56:35;3.08;;;1.85;;
64959;SDS011;51487;52.266;10.542;2023-04-12T00:59:01;7.00;;;2.00;;
64959;SDS011;51487;52.266;10.542;2023-04-12T01:01:27;5.03;;;1.85;;
64959;SDS011;51487;52.266;10.542;2023-04-12T01:03:52;10.35;;;2.47;;
64959;SDS011;51487;52.266;10.542;2023-04-12T01:17:10;4.13;;;2.10;;
64959;SDS011;51487;52.266;10.542;2023-04-12T01:30:16;11.30;;;2.45;;
64959;SDS011;51487;52.266;10.542;2023-04-12T01:32:43;5.30;;;2.72;;
64959;SDS011;51487;52.266;10.542;2023-04-12T01:35:11;5.63;;;2.22;;
64959;SDS011;51487;52.266;10.542;2023-04-12T01:37:38;3.85;;;1.80;;
64959;SDS011;51487;52.266;10.542;2023-04-12T01:40:05;4.57;;;1.55;;
64959;SDS011;51487;52.266;10.542;2023-04-12T01:42:33;3.28;;;1.98;;
64959;SDS011;51487;52.266;10.542;2023-04-12T01:44:58;6.38;;;2.08;;
64959;SDS011;51487;52.266;10.542;2023-04-12T01:47:24;3.85;;;2.08;;
64959;SDS011;51487;52.266;10.542;2023-04-12T01:52:35;4.07;;;1.73;;
64959;SDS011;51487;52.266;10.542;2023-04-12T01:55:06;4.95;;;1.90;;
64959;SDS011;51487;52.266;10.542;2023-04-12T01:57:32;3.50;;;2.15;;
64959;SDS011;51487;52.266;10.542;2023-04-12T01:59:57;7.65;;;2.10;;
64959;SDS011;51487;52.266;10.542;2023-04-12T02:02:25;4.25;;;2.08;;
64959;SDS011;51487;52.266;10.542;2023-04-12T02:04:51;4.70;;;1.80;;
64959;SDS011;51487;52.266;10.542;2023-04-12T02:07:17;5.70;;;2.00;;
64959;SDS011;51487;52.266;10.542;2023-04-12T02:09:44;4.60;;;2.10;;
64959;SDS011;51487;52.266;10.542;2023-04-12T02:12:09;4.07;;;2.00;;
64959;SDS011;51487;52.266;10.542;2023-04-12T02:14:35;5.57;;;2.30;;
64959;SDS011;51487;52.266;10.542;2023-04-12T02:17:00;6.50;;;2.55;;
64959;SDS011;51487;52.266;10.542;2023-04-12T02:19:28;5.47;;;2.00;;
64959;SDS011;51487;52.266;10.542;2023-04-12T02:21:53;4.30;;;1.80;;
64959;SDS011;51487;52.266;10.542;2023-04-12T02:24:18;4.35;;;2.00;;
64959;SDS011;51487;52.266;10.542;2023-04-12T02:26:44;5.85;;;2.70;;
64959;SDS011;51487;52.266;10.542;2023-04-12T02:29:10;2.50;;;1.77;;
64959;SDS011;51487;52.266;10.542;2023-04-12T02:31:36;4.30;;;1.83;;
64959;SDS011;51487;52.266;10.542;2023-04-12T02:34:02;5.22;;;2.38;;
64959;SDS011;51487;52.266;10.542;2023-04-12T02:36:29;3.67;;;1.80;;
64959;SDS011;51487;52.266;10.542;2023-04-12T02:38:55;2.40;;;2.10;;
64959;SDS011;51487;52.266;10.542;2023-04-12T02:41:21;5.15;;;1.90;;
64959;SDS011;51487;52.266;10.542;2023-04-12T02:43:47;5.78;;;2.30;;
64959;SDS011;51487;52.266;10.542;2023-04-12T02:46:18;5.45;;;2.10;;
64959;SDS011;51487;52.266;10.542;2023-04-12T02:48:46;4.35;;;2.10;;
64959;SDS011;51487;52.266;10.542;2023-04-12T02:51:12;2.55;;;2.00;;
64959;SDS011;51487;52.266;10.542;2023-04-12T02:53:38;2.75;;;2.05;;
64959;SDS011;51487;52.266;10.542;2023-04-12T02:56:03;4.40;;;2.00;;
64959;SDS011;51487;52.266;10.542;2023-04-12T02:58:29;6.70;;;2.55;;
64959;SDS011;51487;52.266;10.542;2023-04-12T03:00:55;3.78;;;2.03;;
64959;SDS011;51487;52.266;10.542;2023-04-12T03:03:24;2.95;;;1.90;;
64959;SDS011;51487;52.266;10.542;2023-04-12T03:05:50;3.70;;;1.92;;
64959;SDS011;51487;52.266;10.542;2023-04-12T03:08:17;3.38;;;2.10;;
64959;SDS011;51487;52.266;10.542;2023-04-12T03:10:42;7.90;;;2.40;;
64959;SDS011;51487;52.266;10.542;2023-04-12T03:13:08;3.13;;;1.90;;
64959;SDS011;51487;52.266;10.542;2023-04-12T03:15:33;3.38;;;1.92;;
64959;SDS011;51487;52.266;10.542;2023-04-12T03:17:59;3.72;;;2.20;;
64959;SDS011;51487;52.266;10.542;2023-04-12T03:20:24;4.25;;;2.17;;
64959;SDS011;51487;52.266;10.542;2023-04-12T03:22:49;3.40;;;1.90;;
64959;SDS011;51487;52.266;10.542;2023-04-12T03:25:15;4.70;;;1.90;;
64959;SDS011;51487;52.266;10.542;2023-04-12T03:27:42;5.13;;;2.10;;
64959;SDS011;51487;52.266;10.542;2023-04-12T03:30:08;5.72;;;2.63;;
64959;SDS011;51487;52.266;10.542;2023-04-12T03:32:40;4.07;;;2.08;;
64959;SDS011;51487;52.266;10.542;2023-04-12T03:35:06;5.15;;;2.33;;
64959;SDS011;51487;52.266;10.542;2023-04-12T03:37:33;2.38;;;1.67;;
64959;SDS011;51487;52.266;10.542;2023-04-12T03:39:59;3.70;;;2.25;;
64959;SDS011;51487;52.266;10.542;2023-04-12T03:42:24;4.68;;;1.92;;
64959;SDS011;51487;52.266;10.542;2023-04-12T03:44:51;4.95;;;2.22;;
64959;SDS011;51487;52.266;10.542;2023-04-12T03:47:16;6.40;;;2.40;;
64959;SDS011;51487;52.266;10.542;2023-04-12T03:49:42;2.85;;;2.00;;
64959;SDS011;51487;52.266;10.542;2023-04-12T03:52:08;3.97;;;2.00;;
64959;SDS011;51487;52.266;10.542;2023-04-12T03:54:33;2.17;;;1.73;;
64959;SDS011;51487;52.266;10.542;2023-04-12T03:56:59;4.93;;;1.90;;
64959;SDS011;51487;52.266;10.542;2023-04-12T03:59:26;3.28;;;2.08;;
64959;SDS011;51487;52.266;10.542;2023-04-12T04:01:52;5.95;;;2.80;;
64959;SDS011;51487;52.266;10.542;2023-04-12T04:04:17;4.18;;;2.20;;
64959;SDS011;51487;52.266;10.542;2023-04-12T04:06:43;6.88;;;2.65;;
64959;SDS011;51487;52.266;10.542;2023-04-12T04:09:08;3.13;;;2.15;;
64959;SDS011;51487;52.266;10.542;2023-04-12T04:11:33;2.65;;;2.20;;
64959;SDS011;51487;52.266;10.542;2023-04-12T04:13:59;2.35;;;1.88;;
64959;SDS011;51487;52.266;10.542;2023-04-12T04:16:25;4.40;;;2.10;;
64959;SDS011;51487;52.266;10.542;2023-04-12T04:18:50;3.85;;;2.28;;
64959;SDS011;51487;52.266;10.542;2023-04-12T04:21:16;7.38;;;2.25;;
64959;SDS011;51487;52.266;10.542;2023-04-12T04:23:41;3.70;;;2.28;;
64959;SDS011;51487;52.266;10.542;2023-04-12T04:26:11;4.20;;;1.92;;
64959;SDS011;51487;52.266;10.542;2023-04-12T04:28:39;5.25;;;2.13;;
64959;SDS011;51487;52.266;10.542;2023-04-12T04:31:09;3.00;;;1.88;;
64959;SDS011;51487;52.266;10.542;2023-04-12T04:33:35;3.78;;;1.98;;
64959;SDS011;51487;52.266;10.542;2023-04-12T04:36:01;3.92;;;2.10;;
64959;SDS011;51487;52.266;10.542;2023-04-12T04:38:28;3.80;;;2.20;;
64959;SDS011;51487;52.266;10.542;2023-04-12T04:40:56;4.65;;;2.33;;
64959;SDS011;51487;52.266;10.542;2023-04-12T04:43:28;4.38;;;2.13;;
64959;SDS011;51487;52.266;10.542;2023-04-12T04:45:55;4.68;;;2.10;;
64959;SDS011;51487;52.266;10.542;2023-04-12T04:48:21;3.22;;;2.08;;
64959;SDS011;51487;52.266;10.542;2023-04-12T04:50:47;2.35;;;1.90;;
64959;SDS011;51487;52.266;10.542;2023-04-12T04:53:12;6.32;;;2.08;;
64959;SDS011;51487;52.266;10.542;2023-04-12T04:55:37;3.83;;;2.25;;
64959;SDS011;51487;52.266;10.542;2023-04-12T04:58:04;5.50;;;2.50;;
64959;SDS011;51487;52.266;10.542;2023-04-12T05:00:30;2.90;;;2.08;;
64959;SDS011;51487;52.266;10.542;2023-04-12T05:02:55;4.82;;;2.30;;
64959;SDS011;51487;52.266;10.542;2023-04-12T05:05:21;4.93;;;2.15;;
64959;SDS011;51487;52.266;10.542;2023-04-12T05:07:50;3.95;;;1.90;;
64959;SDS011;51487;52.266;10.542;2023-04-12T05:10:15;4.20;;;2.10;;
64959;SDS011;51487;52.266;10.542;2023-04-12T05:12:41;4.55;;;2.05;;
64959;SDS011;51487;52.266;10.542;2023-04-12T05:15:06;4.97;;;2.38;;
64959;SDS011;51487;52.266;10.542;2023-04-12T05:17:32;3.75;;;2.33;;
64959;SDS011;51487;52.266;10.542;2023-04-12T05:19:58;9.07;;;2.83;;
64959;SDS011;51487;52.266;10.542;2023-04-12T05:22:24;3.78;;;2.05;;
64959;SDS011;51487;52.266;10.542;2023-04-12T05:24:50;4.68;;;2.17;;
64959;SDS011;51487;52.266;10.542;2023-04-12T05:27:15;5.10;;;2.58;;
64959;SDS011;51487;52.266;10.542;2023-04-12T05:29:43;4.40;;;2.15;;
64959;SDS011;51487;52.266;10.542;2023-04-12T05:32:09;4.32;;;2.28;;
64959;SDS011;51487;52.266;10.542;2023-04-12T05:34:35;6.95;;;2.78;;
64959;SDS011;51487;52.266;10.542;2023-04-12T05:37:01;4.70;;;2.50;;
64959;SDS011;51487;52.266;10.542;2023-04-12T05:39:27;5.18;;;2.22;;
64959;SDS011;51487;52.266;10.542;2023-04-12T05:41:52;6.25;;;2.75;;
64959;SDS011;51487;52.266;10.542;2023-04-12T05:44:18;5.72;;;2.67;;
64959;SDS011;51487;52.266;10.542;2023-04-12T05:46:43;6.38;;;2.47;;
64959;SDS011;51487;52.266;10.542;2023-04-12T05:49:09;4.28;;;2.63;;
64959;SDS011;51487;52.266;10.542;2023-04-12T05:51:34;6.57;;;2.75;;
64959;SDS011;51487;52.266;10.542;2023-04-12T05:54:00;4.63;;;2.53;;
64959;SDS011;51487;52.266;10.542;2023-04-12T05:56:25;5.53;;;2.50;;
64959;SDS011;51487;52.266;10.542;2023-04-12T05:58:51;6.32;;;2.47;;
64959;SDS011;51487;52.266;10.542;2023-04-12T06:01:16;4.35;;;2.47;;
64959;SDS011;51487;52.266;10.542;2023-04-12T06:03:43;3.42;;;2.30;;
64959;SDS011;51487;52.266;10.542;2023-04-12T06:06:10;4.82;;;2.47;;
64959;SDS011;51487;52.266;10.542;2023-04-12T06:08:35;3.60;;;2.30;;
64959;SDS011;51487;52.266;10.542;2023-04-12T06:11:02;5.40;;;2.40;;
64959;SDS011;51487;52.266;10.542;2023-04-12T06:13:28;5.43;;;2.80;;
64959;SDS011;51487;52.266;10.542;2023-04-12T06:15:54;6.53;;;2.10;;
64959;SDS011;51487;52.266;10.542;2023-04-12T06:18:19;6.05;;;2.95;;
64959;SDS011;51487;52.266;10.542;2023-04-12T06:20:44;3.67;;;2.33;;
64959;SDS011;51487;52.266;10.542;2023-04-12T06:23:10;4.32;;;2.28;;
64959;SDS011;51487;52.266;10.542;2023-04-12T06:25:36;4.85;;;2.40;;
64959;SDS011;51487;52.266;10.542;2023-04-12T06:28:01;5.65;;;2.53;;
64959;SDS011;51487;52.266;10.542;2023-04-12T06:30:26;6.68;;;2.30;;
64959;SDS011;51487;52.266;10.542;2023-04-12T06:32:52;4.00;;;2.28;;
64959;SDS011;51487;52.266;10.542;2023-04-12T06:35:17;3.63;;;2.33;;
64959;SDS011;51487;52.266;10.542;2023-04-12T06:37:44;3.05;;;2.03;;
64959;SDS011;51487;52.266;10.542;2023-04-12T06:40:09;5.03;;;2.58;;
64959;SDS011;51487;52.266;10.542;2023-04-12T06:42:36;5.65;;;2.38;;
64959;SDS011;51487;52.266;10.542;2023-04-12T06:45:02;3.20;;;2.00;;
64959;SDS011;51487;52.266;10.542;2023-04-12T06:47:27;6.07;;;2.47;;
64959;SDS011;51487;52.266;10.542;2023-04-12T06:49:54;5.07;;;1.90;;
64959;SDS011;51487;52.266;10.542;2023-04-12T06:52:24;5.22;;;2.40;;
64959;SDS011;51487;52.266;10.542;2023-04-12T06:54:50;6.00;;;2.20;;
64959;SDS011;51487;52.266;10.542;2023-04-12T06:57:16;4.28;;;2.20;;
64959;SDS011;51487;52.266;10.542;2023-04-12T06:59:42;9.23;;;3.78;;
64959;SDS011;51487;52.266;10.542;2023-04-12T07:02:07;4.55;;;2.33;;
64959;SDS011;51487;52.266;10.542;2023-04-12T07:04:32;4.68;;;2.40;;
64959;SDS011;51487;52.266;10.542;2023-04-12T07:06:58;4.72;;;2.17;;
64959;SDS011;51487;52.266;10.542;2023-04-12T07:09:23;5.63;;;2.25;;
64959;SDS011;51487;52.266;10.542;2023-04-12T07:11:49;5.82;;;2.60;;
64959;SDS011;51487;52.266;10.542;2023-04-12T07:14:14;4.07;;;2.35;;
64959;SDS011;51487;52.266;10.542;2023-04-12T07:16:41;7.57;;;2.83;;
64959;SDS011;51487;52.266;10.542;2023-04-12T07:19:06;4.30;;;2.50;;
64959;SDS011;51487;52.266;10.542;2023-04-12T07:21:32;3.33;;;2.35;;
64959;SDS011;51487;52.266;10.542;2023-04-12T07:23:57;4.97;;;2.40;;
64959;SDS011;51487;52.266;10.542;2023-04-12T07:26:23;7.13;;;2.60;;
64959;SDS011;51487;52.266;10.542;2023-04-12T07:28:48;3.80;;;2.50;;
64959;SDS011;51487;52.266;10.542;2023-04-12T07:31:14;5.30;;;2.42;;
64959;SDS011;51487;52.266;10.542;2023-04-12T07:33:39;4.90;;;2.42;;
64959;SDS011;51487;52.266;10.542;2023-04-12T07:36:05;5.13;;;2.38;;
64959;SDS011;51487;52.266;10.542;2023-04-12T07:38:30;4.32;;;2.83;;
64959;SDS011;51487;52.266;10.542;2023-04-12T07:40:56;4.60;;;2.30;;
64959;SDS011;51487;52.266;10.542;2023-04-12T07:43:21;4.78;;;2.90;;
64959;SDS011;51487;52.266;10.542;2023-04-12T07:45:47;4.57;;;2.72;;
64959;SDS011;51487;52.266;10.542;2023-04-12T07:48:13;6.53;;;2.67;;
64959;SDS011;51487;52.266;10.542;2023-04-12T07:50:38;5.18;;;2.90;;
64959;SDS011;51487;52.266;10.542;2023-04-12T07:55:47;4.65;;;2.58;;
64959;SDS011;51487;52.266;10.542;2023-04-12T07:58:16;4.28;;;2.38;;
64959;SDS011;51487;52.266;10.542;2023-04-12T08:00:43;6.82;;;2.60;;
64959;SDS011;51487;52.266;10.542;2023-04-12T08:03:12;4.95;;;2.80;;
64959;SDS011;51487;52.266;10.542;2023-04-12T08:05:39;6.55;;;2.60;;
64959;SDS011;51487;52.266;10.542;2023-04-12T08:08:05;7.55;;;2.65;;
64959;SDS011;51487;52.266;10.542;2023-04-12T08:10:30;4.07;;;2.50;;
64959;SDS011;51487;52.266;10.542;2023-04-12T08:12:56;3.90;;;2.03;;
64959;SDS011;51487;52.266;10.542;2023-04-12T08:15:22;5.90;;;2.60;;
64959;SDS011;51487;52.266;10.542;2023-04-12T08:17:47;4.88;;;2.53;;
64959;SDS011;51487;52.266;10.542;2023-04-12T08:20:13;4.90;;;2.53;;
64959;SDS011;51487;52.266;10.542;2023-04-12T08:22:42;5.45;;;2.22;;
64959;SDS011;51487;52.266;10.542;2023-04-12T08:25:10;7.75;;;2.35;;
64959;SDS011;51487;52.266;10.542;2023-04-12T08:27:35;5.10;;;2.30;;
64959;SDS011;51487;52.266;10.542;2023-04-12T08:30:03;6.55;;;2.67;;
64959;SDS011;51487;52.266;10.542;2023-04-12T08:32:30;7.88;;;2.70;;
64959;SDS011;51487;52.266;10.542;2023-04-12T08:34:55;4.20;;;2.50;;
64959;SDS011;51487;52.266;10.542;2023-04-12T08:37:21;6.88;;;2.70;;
64959;SDS011;51487;52.266;10.542;2023-04-12T08:39:46;3.65;;;2.38;;
64959;SDS011;51487;52.266;10.542;2023-04-12T08:42:12;5.75;;;2.28;;
64959;SDS011;51487;52.266;10.542;2023-04-12T08:44:40;6.55;;;2.42;;
64959;SDS011;51487;52.266;10.542;2023-04-12T08:47:07;4.80;;;2.35;;
64959;SDS011;51487;52.266;10.542;2023-04-12T08:49:33;5.57;;;2.63;;
64959;SDS011;51487;52.266;10.542;2023-04-12T08:51:59;5.65;;;2.30;;
64959;SDS011;51487;52.266;10.542;2023-04-12T08:54:27;6.40;;;2.00;;
64959;SDS011;51487;52.266;10.542;2023-04-12T08:56:54;5.90;;;2.28;;
64959;SDS011;51487;52.266;10.542;2023-04-12T08:59:22;4.75;;;2.17;;
64959;SDS011;51487;52.266;10.542;2023-04-12T09:01:49;10.65;;;2.53;;
64959;SDS011;51487;52.266;10.542;2023-04-12T09:04:16;7.93;;;2.17;;
64959;SDS011;51487;52.266;10.542;2023-04-12T09:06:41;4.80;;;1.98;;
64959;SDS011;51487;52.266;10.542;2023-04-12T09:09:07;6.00;;;2.13;;
64959;SDS011;51487;52.266;10.542;2023-04-12T09:11:32;4.80;;;1.80;;
64959;SDS011;51487;52.266;10.542;2023-04-12T09:13:58;8.10;;;1.65;;
64959;SDS011;51487;52.266;10.542;2023-04-12T09:16:39;5.60;;;1.80;;
64959;SDS011;51487;52.266;10.542;2023-04-12T09:19:06;6.18;;;1.80;;
64959;SDS011;51487;52.266;10.542;2023-04-12T09:21:32;3.22;;;1.42;;
64959;SDS011;51487;52.266;10.542;2023-04-12T09:24:05;6.15;;;1.42;;
64959;SDS011;51487;52.266;10.542;2023-04-12T09:26:37;5.20;;;1.80;;
64959;SDS011;51487;52.266;10.542;2023-04-12T09:29:03;1.83;;;1.23;;
64959;SDS011;51487;52.266;10.542;2023-04-12T09:31:28;6.35;;;1.40;;
64959;SDS011;51487;52.266;10.542;2023-04-12T09:34:07;2.92;;;1.38;;
64959;SDS011;51487;52.266;10.542;2023-04-12T09:36:36;4.88;;;1.77;;
64959;SDS011;51487;52.266;10.542;2023-04-12T09:39:03;4.07;;;1.65;;
64959;SDS011;51487;52.266;10.542;2023-04-12T09:41:29;4.88;;;1.60;;
64959;SDS011;51487;52.266;10.542;2023-04-12T09:43:59;3.80;;;1.90;;
64959;SDS011;51487;52.266;10.542;2023-04-12T09:46:24;4.95;;;1.67;;
64959;SDS011;51487;52.266;10.542;2023-04-12T09:48:51;4.45;;;1.90;;
64959;SDS011;51487;52.266;10.542;2023-04-12T09:51:28;5.22;;;1.92;;
64959;SDS011;51487;52.266;10.542;2023-04-12T09:53:57;4.05;;;1.75;;
64959;SDS011;51487;52.266;10.542;2023-04-12T09:56:25;4.63;;;1.55;;
64959;SDS011;51487;52.266;10.542;2023-04-12T09:58:53;3.75;;;1.45;;
64959;SDS011;51487;52.266;10.542;2023-04-12T10:01:21;5.38;;;1.92;;
64959;SDS011;51487;52.266;10.542;2023-04-12T10:03:47;4.65;;;1.75;;
64959;SDS011;51487;52.266;10.542;2023-04-12T10:06:13;4.53;;;1.60;;
64959;SDS011;51487;52.266;10.542;2023-04-12T10:08:39;4.28;;;1.98;;
64959;SDS011;51487;52.266;10.542;2023-04-12T10:11:06;5.93;;;1.80;;
64959;SDS011;51487;52.266;10.542;2023-04-12T10:13:31;7.13;;;2.22;;
64959;SDS011;51487;52.266;10.542;2023-04-12T10:15:57;5.22;;;2.15;;
64959;SDS011;51487;52.266;10.542;2023-04-12T10:18:24;4.45;;;2.20;;
64959;SDS011;51487;52.266;10.542;2023-04-12T10:20:51;6.20;;;2.13;;
64959;SDS011;51487;52.266;10.542;2023-04-12T10:23:17;6.03;;;2.28;;
64959;SDS011;51487;52.266;10.542;2023-04-12T10:25:43;6.78;;;2.75;;
64959;SDS011;51487;52.266;10.542;2023-04-12T10:28:18;5.28;;;1.95;;
64959;SDS011;51487;52.266;10.542;2023-04-12T10:30:45;5.18;;;1.63;;
64959;SDS011;51487;52.266;10.542;2023-04-12T10:33:13;3.28;;;1.60;;
64959;SDS011;51487;52.266;10.542;2023-04-12T10:35:53;7.20;;;2.42;;
64959;SDS011;51487;52.266;10.542;2023-04-12T10:38:28;5.03;;;2.15;;
64959;SDS011;51487;52.266;10.542;2023-04-12T10:43:37;3.42;;;1.75;;
64959;SDS011;51487;52.266;10.542;2023-04-12T10:46:04;5.68;;;1.92;;
64959;SDS011;51487;52.266;10.542;2023-04-12T10:53:52;3.13;;;1.83;;
64959;SDS011;51487;52.266;10.542;2023-04-12T10:56:34;4.80;;;1.85;;
64959;SDS011;51487;52.266;10.542;2023-04-12T10:59:05;4.35;;;1.98;;
64959;SDS011;51487;52.266;10.542;2023-04-12T11:01:32;2.53;;;1.90;;
64959;SDS011;51487;52.266;10.542;2023-04-12T11:09:26;2.65;;;1.70;;
64959;SDS011;51487;52.266;10.542;2023-04-12T11:14:33;5.30;;;1.75;;
64959;SDS011;51487;52.266;10.542;2023-04-12T11:19:31;4.18;;;2.20;;
64959;SDS011;51487;52.266;10.542;2023-04-12T11:22:02;4.82;;;1.88;;
64959;SDS011;51487;52.266;10.542;2023-04-12T11:24:28;2.90;;;1.90;;
64959;SDS011;51487;52.266;10.542;2023-04-12T11:26:54;5.35;;;2.10;;
64959;SDS011;51487;52.266;10.542;2023-04-12T11:29:24;3.95;;;1.55;;
64959;SDS011;51487;52.266;10.542;2023-04-12T11:31:50;3.38;;;1.55;;
64959;SDS011;51487;52.266;10.542;2023-04-12T11:34:16;2.90;;;1.63;;
64959;SDS011;51487;52.266;10.542;2023-04-12T11:36:43;3.45;;;1.60;;
64959;SDS011;51487;52.266;10.542;2023-04-12T11:39:09;3.97;;;1.90;;
64959;SDS011;51487;52.266;10.542;2023-04-12T11:41:35;5.18;;;2.13;;
64959;SDS011;51487;52.266;10.542;2023-04-12T11:44:01;5.25;;;1.63;;
64959;SDS011;51487;52.266;10.542;2023-04-12T11:46:32;4.10;;;1.70;;
64959;SDS011;51487;52.266;10.542;2023-04-12T11:48:58;1.60;;;1.40;;
64959;SDS011;51487;52.266;10.542;2023-04-12T11:51:23;2.78;;;1.60;;
64959;SDS011;51487;52.266;10.542;2023-04-12T11:53:54;2.22;;;1.60;;
64959;SDS011;51487;52.266;10.542;2023-04-12T11:56:21;2.47;;;1.70;;
64959;SDS011;51487;52.266;10.542;2023-04-12T11:58:46;3.85;;;1.95;;
64959;SDS011;51487;52.266;10.542;2023-04-12T12:01:15;1.30;;;1.20;;
64959;SDS011;51487;52.266;10.542;2023-04-12T12:03:42;5.00;;;1.63;;
64959;SDS011;51487;52.266;10.542;2023-04-12T12:06:08;2.45;;;1.58;;
64959;SDS011;51487;52.266;10.542;2023-04-12T12:08:35;3.55;;;1.70;;
64959;SDS011;51487;52.266;10.542;2023-04-12T12:11:00;3.78;;;1.80;;
64959;SDS011;51487;52.266;10.542;2023-04-12T12:13:26;2.85;;;1.70;;
64959;SDS011;51487;52.266;10.542;2023-04-12T12:15:51;2.83;;;1.90;;
64959;SDS011;51487;52.266;10.542;2023-04-12T12:18:17;5.50;;;2.13;;
64959;SDS011;51487;52.266;10.542;2023-04-12T12:20:49;3.63;;;1.90;;
64959;SDS011;51487;52.266;10.542;2023-04-12T12:23:31;3.30;;;1.90;;
64959;SDS011;51487;52.266;10.542;2023-04-12T12:25:57;4.60;;;1.90;;
64959;SDS011;51487;52.266;10.542;2023-04-12T12:28:23;4.05;;;1.70;;
64959;SDS011;51487;52.266;10.542;2023-04-12T12:30:52;4.78;;;2.08;;
64959;SDS011;51487;52.266;10.542;2023-04-12T12:33:19;4.63;;;1.90;;
64959;SDS011;51487;52.266;10.542;2023-04-12T12:35:44;5.22;;;1.80;;
64959;SDS011;51487;52.266;10.542;2023-04-12T12:38:10;2.58;;;1.73;;
64959;SDS011;51487;52.266;10.542;2023-04-12T12:40:35;3.10;;;1.95;;
64959;SDS011;51487;52.266;10.542;2023-04-12T12:43:02;5.55;;;1.90;;
64959;SDS011;51487;52.266;10.542;2023-04-12T12:45:28;2.13;;;1.60;;
64959;SDS011;51487;52.266;10.542;2023-04-12T12:48:02;2.35;;;1.58;;
64959;SDS011;51487;52.266;10.542;2023-04-12T12:50:32;3.50;;;2.22;;
64959;SDS011;51487;52.266;10.542;2023-04-12T12:52:59;2.60;;;1.60;;
64959;SDS011;51487;52.266;10.542;2023-04-12T12:55:25;4.05;;;1.60;;
64959;SDS011;51487;52.266;10.542;2023-04-12T12:57:53;2.90;;;1.67;;
64959;SDS011;51487;52.266;10.542;2023-04-12T13:00:21;4.13;;;1.70;;
64959;SDS011;51487;52.266;10.542;2023-04-12T13:02:48;2.30;;;1.80;;
64959;SDS011;51487;52.266;10.542;2023-04-12T13:05:14;3.67;;;1.70;;
64959;SDS011;51487;52.266;10.542;2023-04-12T13:07:40;2.63;;;1.73;;
64959;SDS011;51487;52.266;10.542;2023-04-12T13:10:06;3.33;;;1.50;;
64959;SDS011;51487;52.266;10.542;2023-04-12T13:12:33;4.20;;;1.60;;
64959;SDS011;51487;52.266;10.542;2023-04-12T13:14:58;2.88;;;1.60;;
64959;SDS011;51487;52.266;10.542;2023-04-12T13:17:27;6.78;;;1.80;;
64959;SDS011;51487;52.266;10.542;2023-04-12T13:19:53;2.17;;;1.80;;
64959;SDS011;51487;52.266;10.542;2023-04-12T13:22:19;3.70;;;2.15;;
64959;SDS011;51487;52.266;10.542;2023-04-12T13:24:45;4.63;;;1.80;;
64959;SDS011;51487;52.266;10.542;2023-04-12T13:27:11;2.70;;;1.75;;
64959;SDS011;51487;52.266;10.542;2023-04-12T13:29:37;3.40;;;1.70;;
64959;SDS011;51487;52.266;10.542;2023-04-12T13:32:03;2.30;;;1.50;;
64959;SDS011;51487;52.266;10.542;2023-04-12T13:34:28;4.43;;;1.65;;
64959;SDS011;51487;52.266;10.542;2023-04-12T13:36:55;2.35;;;1.58;;
64959;SDS011;51487;52.266;10.542;2023-04-12T13:39:20;1.73;;;1.38;;
64959;SDS011;51487;52.266;10.542;2023-04-12T13:41:45;4.13;;;1.40;;
64959;SDS011;51487;52.266;10.542;2023-04-12T13:44:11;3.72;;;1.63;;
64959;SDS011;51487;52.266;10.542;2023-04-12T13:46:36;1.55;;;1.40;;
64959;SDS011;51487;52.266;10.542;2023-04-12T13:49:02;1.40;;;1.30;;
64959;SDS011;51487;52.266;10.542;2023-04-12T13:51:27;2.35;;;1.52;;
64959;SDS011;51487;52.266;10.542;2023-04-12T13:53:53;1.45;;;1.20;;
64959;SDS011;51487;52.266;10.542;2023-04-12T13:56:19;1.95;;;1.40;;
64959;SDS011;51487;52.266;10.542;2023-04-12T13:58:45;1.90;;;1.60;;
64959;SDS011;51487;52.266;10.542;2023-04-12T14:01:11;1.33;;;1.23;;
64959;SDS011;51487;52.266;10.542;2023-04-12T14:03:37;2.97;;;1.60;;
64959;SDS011;51487;52.266;10.542;2023-04-12T14:06:03;2.25;;;1.70;;
64959;SDS011;51487;52.266;10.542;2023-04-12T14:08:29;2.13;;;1.92;;
64959;SDS011;51487;52.266;10.542;2023-04-12T14:10:54;1.65;;;1.38;;
64959;SDS011;51487;52.266;10.542;2023-04-12T14:13:23;1.70;;;1.60;;
64959;SDS011;51487;52.266;10.542;2023-04-12T14:15:50;1.75;;;1.55;;
64959;SDS011;51487;52.266;10.542;2023-04-12T14:18:16;2.92;;;1.65;;
64959;SDS011;51487;52.266;10.542;2023-04-12T14:20:42;2.65;;;1.73;;
64959;SDS011;51487;52.266;10.542;2023-04-12T14:23:13;3.45;;;1.83;;
64959;SDS011;51487;52.266;10.542;2023-04-12T14:25:39;2.40;;;1.70;;
64959;SDS011;51487;52.266;10.542;2023-04-12T14:28:04;1.45;;;1.35;;
64959;SDS011;51487;52.266;10.542;2023-04-12T14:30:30;1.65;;;1.55;;
64959;SDS011;51487;52.266;10.542;2023-04-12T14:32:55;1.60;;;1.50;;
64959;SDS011;51487;52.266;10.542;2023-04-12T14:35:21;2.80;;;1.90;;
64959;SDS011;51487;52.266;10.542;2023-04-12T14:37:46;2.08;;;1.50;;
64959;SDS011;51487;52.266;10.542;2023-04-12T14:40:11;2.03;;;1.50;;
64959;SDS011;51487;52.266;10.542;2023-04-12T14:42:37;2.08;;;1.60;;
64959;SDS011;51487;52.266;10.542;2023-04-12T14:45:03;1.95;;;1.50;;
64959;SDS011;51487;52.266;10.542;2023-04-12T14:47:31;1.63;;;1.50;;
64959;SDS011;51487;52.266;10.542;2023-04-12T14:49:58;2.95;;;1.50;;
64959;SDS011;51487;52.266;10.542;2023-04-12T14:52:23;2.58;;;1.60;;
64959;SDS011;51487;52.266;10.542;2023-04-12T14:54:48;2.20;;;1.75;;
64959;SDS011;51487;52.266;10.542;2023-04-12T14:57:14;2.47;;;1.80;;
64959;SDS011;51487;52.266;10.542;2023-04-12T14:59:39;2.78;;;1.90;;
64959;SDS011;51487;52.266;10.542;2023-04-12T15:02:04;1.92;;;1.60;;
64959;SDS011;51487;52.266;10.542;2023-04-12T15:04:30;2.15;;;1.60;;
64959;SDS011;51487;52.266;10.542;2023-04-12T15:06:56;4.43;;;1.70;;
64959;SDS011;51487;52.266;10.542;2023-04-12T15:09:21;3.00;;;1.98;;
64959;SDS011;51487;52.266;10.542;2023-04-12T15:11:50;3.28;;;2.08;;
64959;SDS011;51487;52.266;10.542;2023-04-12T15:14:18;2.75;;;1.83;;